»·PEaware :: N4114C KSNA-KAVX

N4114C :: KSNA-KAVX

FLIGHT INFORMATION

Flight Status: Arrived
Operator: Privately registered:
United States
More flights under this callsign
Pilot: Jasen B. (27581)
Aircraft: BEECH AIRCRAFT SUPER KING AIR 350
(B350)
More flights by this aircraft type
Origin: KSNA John Wayne-Orange Co
United States
Destination: KAVX Catalina
United States
More flights between these airports :: More routes between these airports
Route: +SLI V21 SXC
File this flight plan on PilotEdge
Remarks: I-7 check flight
Altitude:
(Current/Filed)
5,000ft
Speed:
(Current/Filed)
220kts
Departed: 18-Jan-20 08:19 AM
Arrived: 18-Jan-20 08:44 AM
Distance/Time
Traveled:
32nm/0:25
Distance/Time
To Go:
Arrived

Flight Plot

Page will automatically refresh every two minutes.


Map Options




Map Legend


Flown Route
Filed Route
Departure Airport
Arrival Airport
Navaid (VOR, NDB)
Fix

Horizontal Profiles

Position Reports

Time Latitude Longitude Heading Altitude Ground
Speed
18-Jan-20 08:01 33.671409 -117.867177 27 61ft 0kts
18-Jan-20 08:02 33.671409 -117.867177 27 61ft 0kts
18-Jan-20 08:03 33.671409 -117.867177 27 61ft 0kts
18-Jan-20 08:04 33.671409 -117.867177 27 61ft 0kts
18-Jan-20 08:05 33.671409 -117.867177 27 61ft 0kts
18-Jan-20 08:06 33.671409 -117.867177 27 61ft 0kts
18-Jan-20 08:07 33.671409 -117.867177 27 61ft 0kts
18-Jan-20 08:08 33.671409 -117.867177 27 61ft 0kts
18-Jan-20 08:09 33.671409 -117.867177 27 61ft 0kts
18-Jan-20 08:10 33.671409 -117.867177 27 61ft 0kts
18-Jan-20 08:11 33.671409 -117.867177 27 61ft 0kts
18-Jan-20 08:12 33.671409 -117.867177 27 61ft 0kts
18-Jan-20 08:12 33.671409 -117.867177 27 61ft 0kts
18-Jan-20 08:14 33.671898 -117.867674 330 61ft 7kts
18-Jan-20 08:15 33.675783 -117.866036 28 61ft 21kts
18-Jan-20 08:15 33.679572 -117.863635 28 61ft 0kts
18-Jan-20 08:17 33.680468 -117.864716 298 61ft 0kts
18-Jan-20 08:17 33.680498 -117.865760 205 61ft 0kts
18-Jan-20 08:18 33.663244 -117.876289 197 518ft 154kts
18-Jan-20 08:19 33.616181 -117.883546 186 2759ft 177kts
18-Jan-20 08:20 33.563305 -117.892358 187 4016ft 222kts
18-Jan-20 08:22 33.526184 -117.968811 250 3998ft 247kts
18-Jan-20 08:22 33.505813 -118.032420 248 3994ft 242kts
18-Jan-20 08:23 33.480836 -118.107116 248 3996ft 239kts
18-Jan-20 08:24 33.455937 -118.181394 248 3996ft 241kts
18-Jan-20 08:25 33.430831 -118.256126 248 3987ft 240kts
18-Jan-20 08:26 33.407006 -118.326550 248 3982ft 218kts
18-Jan-20 08:27 33.396842 -118.389104 297 3978ft 176kts
18-Jan-20 08:28 33.431570 -118.411657 7 3876ft 157kts
18-Jan-20 08:29 33.472202 -118.405578 8 3482ft 135kts
18-Jan-20 08:30 33.505992 -118.412366 324 3494ft 128kts
18-Jan-20 08:31 33.538377 -118.431447 29 3494ft 141kts
18-Jan-20 08:32 33.525976 -118.397872 180 3482ft 156kts
18-Jan-20 08:33 33.482656 -118.403723 186 3418ft 159kts
18-Jan-20 08:34 33.438491 -118.410610 185 2488ft 159kts
18-Jan-20 08:35 33.392422 -118.417359 187 2534ft 171kts
18-Jan-20 08:36 33.348815 -118.438321 209 2620ft 171kts
18-Jan-20 08:37 33.329663 -118.477507 319 2578ft 153kts
18-Jan-20 08:38 33.363538 -118.466346 358 2259ft 147kts
18-Jan-20 08:39 33.398984 -118.465462 83 1666ft 133kts
18-Jan-20 08:40 33.398987 -118.426451 53 1956ft 148kts
18-Jan-20 08:41 33.411355 -118.391964 69 2081ft 110kts
18-Jan-20 08:42 33.419526 -118.392298 237 2258ft 156kts
18-Jan-20 08:43 33.403851 -118.417717 236 1606ft 3kts
18-Jan-20 08:44 33.402347 -118.419613 91 1606ft 0kts
18-Jan-20 08:45 33.402347 -118.419613 91 1606ft 0kts
18-Jan-20 08:46 33.402347 -118.419613 91 1606ft 0kts
18-Jan-20 08:47 33.402347 -118.419613 91 1606ft 0kts
18-Jan-20 08:48 33.403513 -118.416358 121 1606ft 16kts
18-Jan-20 08:49 33.403201 -118.415687 22 1606ft 0kts
18-Jan-20 08:50 33.403201 -118.415687 22 1606ft 0kts
18-Jan-20 08:51 33.403201 -118.415687 22 1606ft 0kts
18-Jan-20 08:52 33.403201 -118.415687 22 1606ft 0kts
18-Jan-20 08:53 33.403201 -118.415687 22 1606ft 0kts
18-Jan-20 08:54 33.403201 -118.415687 22 1606ft 0kts
18-Jan-20 08:55 33.403201 -118.415687 22 1606ft 0kts
18-Jan-20 08:56 33.403201 -118.415687 22 1606ft 0kts
18-Jan-20 08:57 33.403201 -118.415687 22 1606ft 0kts

Navigation Log

Ident Type
Flight plan parsing failed, navigation log unavailable